sensor_id;sensor_type;location;lat;lon;timestamp;temperature;humidity
6106;DHT22;3083;51.508;7.966;2023-10-09T00:01:50;12.50;99.90
6106;DHT22;3083;51.508;7.966;2023-10-09T00:04:18;12.50;99.90
6106;DHT22;3083;51.508;7.966;2023-10-09T00:06:46;12.40;99.90
6106;DHT22;3083;51.508;7.966;2023-10-09T00:09:14;12.40;99.90
6106;DHT22;3083;51.508;7.966;2023-10-09T00:11:52;12.40;99.90
6106;DHT22;3083;51.508;7.966;2023-10-09T00:14:23;12.30;99.90
6106;DHT22;3083;51.508;7.966;2023-10-09T00:16:50;12.30;99.90
6106;DHT22;3083;51.508;7.966;2023-10-09T00:19:22;12.30;99.90
6106;DHT22;3083;51.508;7.966;2023-10-09T00:21:56;12.30;99.90
6106;DHT22;3083;51.508;7.966;2023-10-09T00:24:26;12.40;99.90
6106;DHT22;3083;51.508;7.966;2023-10-09T00:26:55;12.30;99.90
6106;DHT22;3083;51.508;7.966;2023-10-09T00:29:37;12.30;99.90
6106;DHT22;3083;51.508;7.966;2023-10-09T00:32:10;12.30;99.90
6106;DHT22;3083;51.508;7.966;2023-10-09T00:34:48;12.30;99.90
6106;DHT22;3083;51.508;7.966;2023-10-09T00:37:16;12.30;99.90
6106;DHT22;3083;51.508;7.966;2023-10-09T00:39:48;12.30;99.90
6106;DHT22;3083;51.508;7.966;2023-10-09T00:42:23;12.30;99.90
6106;DHT22;3083;51.508;7.966;2023-10-09T00:44:55;12.30;99.90
6106;DHT22;3083;51.508;7.966;2023-10-09T00:47:23;12.30;99.90
6106;DHT22;3083;51.508;7.966;2023-10-09T00:49:54;12.40;99.90
6106;DHT22;3083;51.508;7.966;2023-10-09T00:52:28;12.30;99.90
6106;DHT22;3083;51.508;7.966;2023-10-09T00:55:05;12.30;99.90
6106;DHT22;3083;51.508;7.966;2023-10-09T00:57:41;12.30;99.90
6106;DHT22;3083;51.508;7.966;2023-10-09T01:00:13;12.40;99.90
6106;DHT22;3083;51.508;7.966;2023-10-09T01:02:58;12.50;99.90
6106;DHT22;3083;51.508;7.966;2023-10-09T01:05:44;12.50;99.90
6106;DHT22;3083;51.508;7.966;2023-10-09T01:08:17;12.60;99.90
6106;DHT22;3083;51.508;7.966;2023-10-09T01:10:51;12.70;99.90
6106;DHT22;3083;51.508;7.966;2023-10-09T01:13:24;12.70;99.90
6106;DHT22;3083;51.508;7.966;2023-10-09T01:16:05;12.70;99.90
6106;DHT22;3083;51.508;7.966;2023-10-09T01:18:32;12.70;99.90
6106;DHT22;3083;51.508;7.966;2023-10-09T01:21:04;12.80;99.90
6106;DHT22;3083;51.508;7.966;2023-10-09T01:23:33;12.80;99.90
6106;DHT22;3083;51.508;7.966;2023-10-09T01:26:08;12.80;99.90
6106;DHT22;3083;51.508;7.966;2023-10-09T01:28:35;12.90;99.90
6106;DHT22;3083;51.508;7.966;2023-10-09T01:31:02;12.90;99.90
6106;DHT22;3083;51.508;7.966;2023-10-09T01:33:29;13.00;99.90
6106;DHT22;3083;51.508;7.966;2023-10-09T01:36:01;13.10;99.90
6106;DHT22;3083;51.508;7.966;2023-10-09T01:38:28;13.20;99.90
6106;DHT22;3083;51.508;7.966;2023-10-09T01:41:10;13.20;99.90
6106;DHT22;3083;51.508;7.966;2023-10-09T01:43:41;13.30;99.90
6106;DHT22;3083;51.508;7.966;2023-10-09T01:46:11;13.30;99.90
6106;DHT22;3083;51.508;7.966;2023-10-09T01:48:41;13.40;99.90
6106;DHT22;3083;51.508;7.966;2023-10-09T01:51:13;13.40;99.90
6106;DHT22;3083;51.508;7.966;2023-10-09T01:53:42;13.40;99.90
6106;DHT22;3083;51.508;7.966;2023-10-09T01:56:11;13.40;99.90
6106;DHT22;3083;51.508;7.966;2023-10-09T01:58:41;13.50;99.90
6106;DHT22;3083;51.508;7.966;2023-10-09T02:01:10;13.50;99.90
6106;DHT22;3083;51.508;7.966;2023-10-09T02:03:38;13.50;99.90
6106;DHT22;3083;51.508;7.966;2023-10-09T02:06:08;13.60;99.90
6106;DHT22;3083;51.508;7.966;2023-10-09T02:08:52;13.60;99.90
6106;DHT22;3083;51.508;7.966;2023-10-09T02:11:20;13.60;99.90
6106;DHT22;3083;51.508;7.966;2023-10-09T02:14:02;13.70;99.90
6106;DHT22;3083;51.508;7.966;2023-10-09T02:16:41;13.70;99.90
6106;DHT22;3083;51.508;7.966;2023-10-09T02:19:08;13.70;99.90
6106;DHT22;3083;51.508;7.966;2023-10-09T02:21:55;13.70;99.90
6106;DHT22;3083;51.508;7.966;2023-10-09T02:24:26;13.70;99.90
6106;DHT22;3083;51.508;7.966;2023-10-09T02:27:10;13.70;99.90
6106;DHT22;3083;51.508;7.966;2023-10-09T02:29:38;13.70;99.90
6106;DHT22;3083;51.508;7.966;2023-10-09T02:32:07;13.70;99.90
6106;DHT22;3083;51.508;7.966;2023-10-09T02:34:51;13.70;99.90
6106;DHT22;3083;51.508;7.966;2023-10-09T02:37:19;13.70;99.90
6106;DHT22;3083;51.508;7.966;2023-10-09T02:39:50;13.70;99.90
6106;DHT22;3083;51.508;7.966;2023-10-09T02:42:19;13.70;99.90
6106;DHT22;3083;51.508;7.966;2023-10-09T02:44:49;13.70;99.90
6106;DHT22;3083;51.508;7.966;2023-10-09T02:47:17;13.70;99.90
6106;DHT22;3083;51.508;7.966;2023-10-09T02:49:47;13.70;99.90
6106;DHT22;3083;51.508;7.966;2023-10-09T02:52:17;13.80;99.90
6106;DHT22;3083;51.508;7.966;2023-10-09T02:54:50;13.80;99.90
6106;DHT22;3083;51.508;7.966;2023-10-09T02:57:26;13.80;99.90
6106;DHT22;3083;51.508;7.966;2023-10-09T03:00:02;13.80;99.90
6106;DHT22;3083;51.508;7.966;2023-10-09T03:02:34;13.80;99.90
6106;DHT22;3083;51.508;7.966;2023-10-09T03:05:05;13.80;99.90
6106;DHT22;3083;51.508;7.966;2023-10-09T03:07:37;13.90;99.90
6106;DHT22;3083;51.508;7.966;2023-10-09T03:10:06;13.90;99.90
6106;DHT22;3083;51.508;7.966;2023-10-09T03:12:36;13.90;99.90
6106;DHT22;3083;51.508;7.966;2023-10-09T03:15:06;13.90;99.90
6106;DHT22;3083;51.508;7.966;2023-10-09T03:17:34;13.90;99.90
6106;DHT22;3083;51.508;7.966;2023-10-09T03:20:03;13.90;99.90
6106;DHT22;3083;51.508;7.966;2023-10-09T03:22:37;13.90;99.90
6106;DHT22;3083;51.508;7.966;2023-10-09T03:25:05;13.90;99.90
6106;DHT22;3083;51.508;7.966;2023-10-09T03:27:38;13.90;99.90
6106;DHT22;3083;51.508;7.966;2023-10-09T03:30:12;14.00;99.90
6106;DHT22;3083;51.508;7.966;2023-10-09T03:32:43;14.00;99.90
6106;DHT22;3083;51.508;7.966;2023-10-09T03:35:14;14.00;99.90
6106;DHT22;3083;51.508;7.966;2023-10-09T03:37:50;14.00;99.90
6106;DHT22;3083;51.508;7.966;2023-10-09T03:40:17;14.00;99.90
6106;DHT22;3083;51.508;7.966;2023-10-09T03:42:46;14.00;99.90
6106;DHT22;3083;51.508;7.966;2023-10-09T03:45:14;14.00;99.90
6106;DHT22;3083;51.508;7.966;2023-10-09T03:47:51;14.10;99.90
6106;DHT22;3083;51.508;7.966;2023-10-09T03:50:23;14.10;99.90
6106;DHT22;3083;51.508;7.966;2023-10-09T03:53:02;14.10;99.90
6106;DHT22;3083;51.508;7.966;2023-10-09T03:55:29;14.20;99.90
6106;DHT22;3083;51.508;7.966;2023-10-09T03:57:59;14.30;99.90
6106;DHT22;3083;51.508;7.966;2023-10-09T04:00:29;14.30;99.90
6106;DHT22;3083;51.508;7.966;2023-10-09T04:02:57;14.40;99.90
6106;DHT22;3083;51.508;7.966;2023-10-09T04:05:24;14.50;99.90
6106;DHT22;3083;51.508;7.966;2023-10-09T04:07:51;14.50;99.90
6106;DHT22;3083;51.508;7.966;2023-10-09T04:10:19;14.50;99.90
6106;DHT22;3083;51.508;7.966;2023-10-09T04:13:05;14.50;99.90
6106;DHT22;3083;51.508;7.966;2023-10-09T04:15:36;14.60;99.90
6106;DHT22;3083;51.508;7.966;2023-10-09T04:18:03;14.60;99.90
6106;DHT22;3083;51.508;7.966;2023-10-09T04:20:33;14.70;99.90
6106;DHT22;3083;51.508;7.966;2023-10-09T04:23:29;14.70;99.90
6106;DHT22;3083;51.508;7.966;2023-10-09T04:26:15;14.80;99.90
6106;DHT22;3083;51.508;7.966;2023-10-09T04:28:47;14.80;99.90
6106;DHT22;3083;51.508;7.966;2023-10-09T04:31:18;14.90;99.90
6106;DHT22;3083;51.508;7.966;2023-10-09T04:33:47;14.90;99.90
6106;DHT22;3083;51.508;7.966;2023-10-09T04:36:38;15.00;99.90
6106;DHT22;3083;51.508;7.966;2023-10-09T04:39:12;15.00;99.90
6106;DHT22;3083;51.508;7.966;2023-10-09T04:42:01;15.00;99.90
6106;DHT22;3083;51.508;7.966;2023-10-09T04:44:53;15.00;99.90
6106;DHT22;3083;51.508;7.966;2023-10-09T04:47:37;15.00;99.90
6106;DHT22;3083;51.508;7.966;2023-10-09T04:50:15;15.10;99.90
6106;DHT22;3083;51.508;7.966;2023-10-09T04:52:57;15.10;99.90
6106;DHT22;3083;51.508;7.966;2023-10-09T04:55:45;15.10;99.90
6106;DHT22;3083;51.508;7.966;2023-10-09T04:58:20;15.10;99.90
6106;DHT22;3083;51.508;7.966;2023-10-09T05:00:52;15.10;99.90
6106;DHT22;3083;51.508;7.966;2023-10-09T05:03:37;15.10;99.90
6106;DHT22;3083;51.508;7.966;2023-10-09T05:06:11;15.10;99.90
6106;DHT22;3083;51.508;7.966;2023-10-09T05:08:58;15.10;99.90
6106;DHT22;3083;51.508;7.966;2023-10-09T05:11:34;15.10;99.90
6106;DHT22;3083;51.508;7.966;2023-10-09T05:14:19;15.10;99.90
6106;DHT22;3083;51.508;7.966;2023-10-09T05:16:53;15.10;99.90
6106;DHT22;3083;51.508;7.966;2023-10-09T05:19:21;15.10;99.90
6106;DHT22;3083;51.508;7.966;2023-10-09T05:22:11;15.10;99.90
6106;DHT22;3083;51.508;7.966;2023-10-09T05:24:56;15.10;99.90
6106;DHT22;3083;51.508;7.966;2023-10-09T05:27:23;15.20;99.90
6106;DHT22;3083;51.508;7.966;2023-10-09T05:30:10;15.20;99.90
6106;DHT22;3083;51.508;7.966;2023-10-09T05:32:53;15.20;99.90
6106;DHT22;3083;51.508;7.966;2023-10-09T05:35:24;15.20;99.90
6106;DHT22;3083;51.508;7.966;2023-10-09T05:38:08;15.20;99.90
6106;DHT22;3083;51.508;7.966;2023-10-09T05:40:49;15.20;99.90
6106;DHT22;3083;51.508;7.966;2023-10-09T05:43:20;15.20;99.90
6106;DHT22;3083;51.508;7.966;2023-10-09T05:46:01;15.20;99.90
6106;DHT22;3083;51.508;7.966;2023-10-09T05:48:36;15.20;99.90
6106;DHT22;3083;51.508;7.966;2023-10-09T05:51:21;15.20;99.90
6106;DHT22;3083;51.508;7.966;2023-10-09T05:54:05;15.20;99.90
6106;DHT22;3083;51.508;7.966;2023-10-09T05:56:50;15.20;99.90
6106;DHT22;3083;51.508;7.966;2023-10-09T05:59:34;15.20;99.90
6106;DHT22;3083;51.508;7.966;2023-10-09T06:02:18;15.10;99.90
6106;DHT22;3083;51.508;7.966;2023-10-09T06:05:09;15.10;99.90
6106;DHT22;3083;51.508;7.966;2023-10-09T06:08:06;15.10;99.90
6106;DHT22;3083;51.508;7.966;2023-10-09T06:10:33;15.10;99.90
6106;DHT22;3083;51.508;7.966;2023-10-09T06:13:10;15.10;99.90
6106;DHT22;3083;51.508;7.966;2023-10-09T06:15:54;15.10;99.90
6106;DHT22;3083;51.508;7.966;2023-10-09T06:18:46;15.20;99.90
6106;DHT22;3083;51.508;7.966;2023-10-09T06:21:21;15.20;99.90
6106;DHT22;3083;51.508;7.966;2023-10-09T06:24:06;15.20;99.90
6106;DHT22;3083;51.508;7.966;2023-10-09T06:26:41;15.20;99.90
6106;DHT22;3083;51.508;7.966;2023-10-09T06:29:17;15.20;99.90
6106;DHT22;3083;51.508;7.966;2023-10-09T06:31:59;15.20;99.90
6106;DHT22;3083;51.508;7.966;2023-10-09T06:34:43;15.20;99.90
6106;DHT22;3083;51.508;7.966;2023-10-09T06:37:13;15.30;99.90
6106;DHT22;3083;51.508;7.966;2023-10-09T06:40:00;15.30;99.90
6106;DHT22;3083;51.508;7.966;2023-10-09T06:42:44;15.30;99.90
6106;DHT22;3083;51.508;7.966;2023-10-09T06:45:17;15.40;99.90
6106;DHT22;3083;51.508;7.966;2023-10-09T06:47:47;15.40;99.90
6106;DHT22;3083;51.508;7.966;2023-10-09T06:50:22;15.40;99.90
6106;DHT22;3083;51.508;7.966;2023-10-09T06:52:55;15.50;99.90
6106;DHT22;3083;51.508;7.966;2023-10-09T06:55:44;15.50;99.90
6106;DHT22;3083;51.508;7.966;2023-10-09T06:58:15;15.60;99.90
6106;DHT22;3083;51.508;7.966;2023-10-09T07:00:48;15.60;99.90
6106;DHT22;3083;51.508;7.966;2023-10-09T07:03:27;15.60;99.90
6106;DHT22;3083;51.508;7.966;2023-10-09T07:06:03;15.70;99.90
6106;DHT22;3083;51.508;7.966;2023-10-09T07:08:37;15.70;99.90
6106;DHT22;3083;51.508;7.966;2023-10-09T07:11:03;15.70;99.90
6106;DHT22;3083;51.508;7.966;2023-10-09T07:13:43;15.80;99.90
6106;DHT22;3083;51.508;7.966;2023-10-09T07:16:20;15.80;99.90
6106;DHT22;3083;51.508;7.966;2023-10-09T07:19:03;15.80;99.90
6106;DHT22;3083;51.508;7.966;2023-10-09T07:21:52;15.90;99.90
6106;DHT22;3083;51.508;7.966;2023-10-09T07:24:21;15.90;99.90
6106;DHT22;3083;51.508;7.966;2023-10-09T07:26:50;16.00;99.90
6106;DHT22;3083;51.508;7.966;2023-10-09T07:29:19;16.10;99.90
6106;DHT22;3083;51.508;7.966;2023-10-09T07:31:49;16.20;99.90
6106;DHT22;3083;51.508;7.966;2023-10-09T07:34:23;16.20;99.90
6106;DHT22;3083;51.508;7.966;2023-10-09T07:37:19;16.20;99.90
6106;DHT22;3083;51.508;7.966;2023-10-09T07:39:50;16.30;99.90
6106;DHT22;3083;51.508;7.966;2023-10-09T07:42:22;16.30;99.90
6106;DHT22;3083;51.508;7.966;2023-10-09T07:44:59;16.40;99.90
6106;DHT22;3083;51.508;7.966;2023-10-09T07:47:37;16.40;99.90
6106;DHT22;3083;51.508;7.966;2023-10-09T07:50:26;16.40;99.90
6106;DHT22;3083;51.508;7.966;2023-10-09T07:53:05;16.50;99.90
6106;DHT22;3083;51.508;7.966;2023-10-09T07:55:53;16.50;99.90
6106;DHT22;3083;51.508;7.966;2023-10-09T07:58:24;16.60;99.90
6106;DHT22;3083;51.508;7.966;2023-10-09T08:00:52;16.60;99.90
6106;DHT22;3083;51.508;7.966;2023-10-09T08:03:36;16.60;99.90
6106;DHT22;3083;51.508;7.966;2023-10-09T08:06:03;16.60;99.90
6106;DHT22;3083;51.508;7.966;2023-10-09T08:08:54;16.70;99.90
6106;DHT22;3083;51.508;7.966;2023-10-09T08:11:40;16.70;99.90
6106;DHT22;3083;51.508;7.966;2023-10-09T08:14:25;16.80;99.90
6106;DHT22;3083;51.508;7.966;2023-10-09T08:17:06;16.80;99.90
6106;DHT22;3083;51.508;7.966;2023-10-09T08:19:40;16.80;99.90
6106;DHT22;3083;51.508;7.966;2023-10-09T08:22:21;16.80;99.90
6106;DHT22;3083;51.508;7.966;2023-10-09T08:25:06;16.80;99.90
6106;DHT22;3083;51.508;7.966;2023-10-09T08:27:35;16.80;99.90
6106;DHT22;3083;51.508;7.966;2023-10-09T08:30:13;16.80;99.90
6106;DHT22;3083;51.508;7.966;2023-10-09T08:32:54;16.80;99.90
6106;DHT22;3083;51.508;7.966;2023-10-09T08:35:26;16.80;99.90
6106;DHT22;3083;51.508;7.966;2023-10-09T08:37:56;16.80;99.90
6106;DHT22;3083;51.508;7.966;2023-10-09T08:40:31;16.80;99.90
6106;DHT22;3083;51.508;7.966;2023-10-09T08:43:09;16.90;99.90
6106;DHT22;3083;51.508;7.966;2023-10-09T08:45:38;16.90;99.90
6106;DHT22;3083;51.508;7.966;2023-10-09T08:48:07;16.90;99.90
6106;DHT22;3083;51.508;7.966;2023-10-09T08:50:35;16.90;99.90
6106;DHT22;3083;51.508;7.966;2023-10-09T08:53:03;16.90;99.90
6106;DHT22;3083;51.508;7.966;2023-10-09T08:55:30;17.00;99.90
6106;DHT22;3083;51.508;7.966;2023-10-09T08:57:57;17.00;99.90
6106;DHT22;3083;51.508;7.966;2023-10-09T09:00:25;17.10;99.90
6106;DHT22;3083;51.508;7.966;2023-10-09T09:02:58;17.10;99.90
6106;DHT22;3083;51.508;7.966;2023-10-09T09:05:27;17.20;99.90
6106;DHT22;3083;51.508;7.966;2023-10-09T09:07:55;17.20;99.90
6106;DHT22;3083;51.508;7.966;2023-10-09T09:10:27;17.30;99.90
6106;DHT22;3083;51.508;7.966;2023-10-09T09:13:01;17.30;99.90
6106;DHT22;3083;51.508;7.966;2023-10-09T09:15:30;17.30;99.90
6106;DHT22;3083;51.508;7.966;2023-10-09T09:18:05;17.30;99.90
6106;DHT22;3083;51.508;7.966;2023-10-09T09:20:36;17.30;99.90
6106;DHT22;3083;51.508;7.966;2023-10-09T09:23:09;17.30;99.90
6106;DHT22;3083;51.508;7.966;2023-10-09T09:25:41;17.30;99.90
6106;DHT22;3083;51.508;7.966;2023-10-09T09:28:11;17.30;99.90
6106;DHT22;3083;51.508;7.966;2023-10-09T09:30:46;17.30;99.90
6106;DHT22;3083;51.508;7.966;2023-10-09T09:33:20;17.30;99.90
6106;DHT22;3083;51.508;7.966;2023-10-09T09:35:59;17.40;99.90
6106;DHT22;3083;51.508;7.966;2023-10-09T09:38:29;17.40;99.90
6106;DHT22;3083;51.508;7.966;2023-10-09T09:41:08;17.50;99.90
6106;DHT22;3083;51.508;7.966;2023-10-09T09:43:36;17.50;99.90
6106;DHT22;3083;51.508;7.966;2023-10-09T09:46:07;17.60;99.90
6106;DHT22;3083;51.508;7.966;2023-10-09T09:48:39;17.70;99.90
6106;DHT22;3083;51.508;7.966;2023-10-09T09:51:11;17.80;99.90
6106;DHT22;3083;51.508;7.966;2023-10-09T09:53:39;17.90;99.90
6106;DHT22;3083;51.508;7.966;2023-10-09T09:56:06;18.10;99.90
6106;DHT22;3083;51.508;7.966;2023-10-09T09:58:39;18.20;99.90
6106;DHT22;3083;51.508;7.966;2023-10-09T10:01:11;18.30;99.90
6106;DHT22;3083;51.508;7.966;2023-10-09T10:03:45;18.40;99.90
6106;DHT22;3083;51.508;7.966;2023-10-09T10:06:14;18.50;99.90
6106;DHT22;3083;51.508;7.966;2023-10-09T10:08:44;18.60;99.90
6106;DHT22;3083;51.508;7.966;2023-10-09T10:11:44;18.70;99.90
6106;DHT22;3083;51.508;7.966;2023-10-09T10:14:11;18.90;99.90
6106;DHT22;3083;51.508;7.966;2023-10-09T10:17:04;19.10;99.90
6106;DHT22;3083;51.508;7.966;2023-10-09T10:20:02;19.20;99.90
6106;DHT22;3083;51.508;7.966;2023-10-09T10:22:47;19.40;99.90
6106;DHT22;3083;51.508;7.966;2023-10-09T10:25:32;19.50;99.90
6106;DHT22;3083;51.508;7.966;2023-10-09T10:28:16;19.70;99.90
6106;DHT22;3083;51.508;7.966;2023-10-09T10:30:53;19.80;99.90
6106;DHT22;3083;51.508;7.966;2023-10-09T10:33:22;20.00;99.90
6106;DHT22;3083;51.508;7.966;2023-10-09T10:35:50;20.00;99.90
6106;DHT22;3083;51.508;7.966;2023-10-09T10:38:30;20.10;99.90
6106;DHT22;3083;51.508;7.966;2023-10-09T10:41:09;20.10;99.90
6106;DHT22;3083;51.508;7.966;2023-10-09T10:43:39;20.00;99.90
6106;DHT22;3083;51.508;7.966;2023-10-09T10:46:21;19.90;99.90
6106;DHT22;3083;51.508;7.966;2023-10-09T10:49:00;19.90;99.90
6106;DHT22;3083;51.508;7.966;2023-10-09T10:51:36;19.90;99.90
6106;DHT22;3083;51.508;7.966;2023-10-09T10:54:05;19.80;99.90
6106;DHT22;3083;51.508;7.966;2023-10-09T10:56:55;19.80;99.90
6106;DHT22;3083;51.508;7.966;2023-10-09T10:59:24;19.70;99.90
6106;DHT22;3083;51.508;7.966;2023-10-09T11:01:52;19.60;99.90
6106;DHT22;3083;51.508;7.966;2023-10-09T11:04:41;19.60;99.90
6106;DHT22;3083;51.508;7.966;2023-10-09T11:07:08;19.60;99.90
6106;DHT22;3083;51.508;7.966;2023-10-09T11:09:45;19.50;99.90
6106;DHT22;3083;51.508;7.966;2023-10-09T11:12:42;19.60;99.90
6106;DHT22;3083;51.508;7.966;2023-10-09T11:15:30;19.60;99.90
6106;DHT22;3083;51.508;7.966;2023-10-09T11:18:04;19.70;99.90
6106;DHT22;3083;51.508;7.966;2023-10-09T11:20:34;19.60;99.90
6106;DHT22;3083;51.508;7.966;2023-10-09T11:23:04;19.60;99.90
6106;DHT22;3083;51.508;7.966;2023-10-09T11:25:42;19.60;99.90
6106;DHT22;3083;51.508;7.966;2023-10-09T11:28:17;19.60;99.90
6106;DHT22;3083;51.508;7.966;2023-10-09T11:30:55;19.70;99.90
6106;DHT22;3083;51.508;7.966;2023-10-09T11:33:43;19.70;99.90
6106;DHT22;3083;51.508;7.966;2023-10-09T11:36:11;19.70;99.90
6106;DHT22;3083;51.508;7.966;2023-10-09T11:38:39;19.80;99.90
6106;DHT22;3083;51.508;7.966;2023-10-09T11:41:14;19.90;99.90
6106;DHT22;3083;51.508;7.966;2023-10-09T11:43:50;19.90;99.90
6106;DHT22;3083;51.508;7.966;2023-10-09T11:46:17;20.00;99.90
6106;DHT22;3083;51.508;7.966;2023-10-09T11:49:03;20.10;99.90
6106;DHT22;3083;51.508;7.966;2023-10-09T11:51:52;20.10;99.90
6106;DHT22;3083;51.508;7.966;2023-10-09T11:54:37;20.10;99.90
6106;DHT22;3083;51.508;7.966;2023-10-09T11:57:03;20.10;99.90
6106;DHT22;3083;51.508;7.966;2023-10-09T11:59:31;20.10;99.90
6106;DHT22;3083;51.508;7.966;2023-10-09T12:02:03;20.00;99.90
6106;DHT22;3083;51.508;7.966;2023-10-09T12:04:30;19.90;99.90
6106;DHT22;3083;51.508;7.966;2023-10-09T12:06:59;19.80;99.90
6106;DHT22;3083;51.508;7.966;2023-10-09T12:09:33;19.80;99.90
6106;DHT22;3083;51.508;7.966;2023-10-09T12:12:01;19.70;99.90
6106;DHT22;3083;51.508;7.966;2023-10-09T12:14:29;19.70;99.90
6106;DHT22;3083;51.508;7.966;2023-10-09T12:16:59;19.60;99.90
6106;DHT22;3083;51.508;7.966;2023-10-09T12:19:31;19.70;99.90
6106;DHT22;3083;51.508;7.966;2023-10-09T12:22:00;19.60;99.90
6106;DHT22;3083;51.508;7.966;2023-10-09T12:24:29;19.60;99.90
6106;DHT22;3083;51.508;7.966;2023-10-09T12:26:56;19.60;99.90
6106;DHT22;3083;51.508;7.966;2023-10-09T12:29:23;19.60;99.90
6106;DHT22;3083;51.508;7.966;2023-10-09T12:31:55;19.60;99.90
6106;DHT22;3083;51.508;7.966;2023-10-09T12:34:24;19.60;99.90
6106;DHT22;3083;51.508;7.966;2023-10-09T12:36:52;19.60;99.90
6106;DHT22;3083;51.508;7.966;2023-10-09T12:39:21;19.70;99.90
6106;DHT22;3083;51.508;7.966;2023-10-09T12:41:49;19.70;99.90
6106;DHT22;3083;51.508;7.966;2023-10-09T12:44:19;19.70;99.90
6106;DHT22;3083;51.508;7.966;2023-10-09T12:46:46;19.70;99.90
6106;DHT22;3083;51.508;7.966;2023-10-09T12:49:18;19.70;99.90
6106;DHT22;3083;51.508;7.966;2023-10-09T12:51:50;19.70;99.90
6106;DHT22;3083;51.508;7.966;2023-10-09T12:54:17;19.70;99.90
6106;DHT22;3083;51.508;7.966;2023-10-09T12:56:51;19.80;99.90
6106;DHT22;3083;51.508;7.966;2023-10-09T12:59:17;19.70;99.90
6106;DHT22;3083;51.508;7.966;2023-10-09T13:01:45;19.70;99.90
6106;DHT22;3083;51.508;7.966;2023-10-09T13:04:18;19.60;99.90
6106;DHT22;3083;51.508;7.966;2023-10-09T13:06:48;19.60;99.90
6106;DHT22;3083;51.508;7.966;2023-10-09T13:09:19;19.50;99.90
6106;DHT22;3083;51.508;7.966;2023-10-09T13:11:59;19.50;99.90
6106;DHT22;3083;51.508;7.966;2023-10-09T13:14:27;19.50;99.90
6106;DHT22;3083;51.508;7.966;2023-10-09T13:16:54;19.50;99.90
6106;DHT22;3083;51.508;7.966;2023-10-09T13:19:21;19.50;99.90
6106;DHT22;3083;51.508;7.966;2023-10-09T13:21:50;19.60;99.90
6106;DHT22;3083;51.508;7.966;2023-10-09T13:24:17;19.60;99.90
6106;DHT22;3083;51.508;7.966;2023-10-09T13:26:49;19.60;99.90
6106;DHT22;3083;51.508;7.966;2023-10-09T13:29:20;19.60;99.90
6106;DHT22;3083;51.508;7.966;2023-10-09T13:31:48;19.70;99.90
6106;DHT22;3083;51.508;7.966;2023-10-09T13:34:18;19.60;99.90
6106;DHT22;3083;51.508;7.966;2023-10-09T13:36:44;19.60;99.90
6106;DHT22;3083;51.508;7.966;2023-10-09T13:39:16;19.60;99.90
6106;DHT22;3083;51.508;7.966;2023-10-09T13:41:50;19.50;99.90
6106;DHT22;3083;51.508;7.966;2023-10-09T13:44:26;19.50;99.90
6106;DHT22;3083;51.508;7.966;2023-10-09T13:46:54;19.50;99.90
6106;DHT22;3083;51.508;7.966;2023-10-09T13:49:21;19.40;99.90
6106;DHT22;3083;51.508;7.966;2023-10-09T13:51:49;19.40;99.90
6106;DHT22;3083;51.508;7.966;2023-10-09T13:54:17;19.40;99.90
6106;DHT22;3083;51.508;7.966;2023-10-09T13:56:47;19.40;99.90
6106;DHT22;3083;51.508;7.966;2023-10-09T13:59:19;19.30;99.90
6106;DHT22;3083;51.508;7.966;2023-10-09T14:01:48;19.30;99.90
6106;DHT22;3083;51.508;7.966;2023-10-09T14:04:15;19.30;99.90
6106;DHT22;3083;51.508;7.966;2023-10-09T14:06:44;19.30;99.90
6106;DHT22;3083;51.508;7.966;2023-10-09T14:09:13;19.20;99.90
6106;DHT22;3083;51.508;7.966;2023-10-09T14:11:55;19.20;99.90
6106;DHT22;3083;51.508;7.966;2023-10-09T14:14:33;19.20;99.90
6106;DHT22;3083;51.508;7.966;2023-10-09T14:17:01;19.20;99.90
6106;DHT22;3083;51.508;7.966;2023-10-09T14:19:37;19.20;99.90
6106;DHT22;3083;51.508;7.966;2023-10-09T14:22:04;19.30;99.90
6106;DHT22;3083;51.508;7.966;2023-10-09T14:24:34;19.20;99.90
6106;DHT22;3083;51.508;7.966;2023-10-09T14:27:03;19.20;99.90
6106;DHT22;3083;51.508;7.966;2023-10-09T14:29:32;19.20;99.90
6106;DHT22;3083;51.508;7.966;2023-10-09T14:32:04;19.20;99.90
6106;DHT22;3083;51.508;7.966;2023-10-09T14:34:31;19.20;99.90
6106;DHT22;3083;51.508;7.966;2023-10-09T14:37:01;19.20;99.90
6106;DHT22;3083;51.508;7.966;2023-10-09T14:39:29;19.10;99.90
6106;DHT22;3083;51.508;7.966;2023-10-09T14:41:58;19.10;99.90
6106;DHT22;3083;51.508;7.966;2023-10-09T14:44:27;19.00;99.90
6106;DHT22;3083;51.508;7.966;2023-10-09T14:46:55;19.00;99.90
6106;DHT22;3083;51.508;7.966;2023-10-09T14:49:25;18.90;99.90
6106;DHT22;3083;51.508;7.966;2023-10-09T14:51:55;18.90;99.90
6106;DHT22;3083;51.508;7.966;2023-10-09T14:54:26;18.90;99.90
6106;DHT22;3083;51.508;7.966;2023-10-09T14:56:53;18.80;99.90
6106;DHT22;3083;51.508;7.966;2023-10-09T14:59:22;18.80;99.90
6106;DHT22;3083;51.508;7.966;2023-10-09T15:01:49;18.80;99.90
6106;DHT22;3083;51.508;7.966;2023-10-09T15:04:16;18.70;99.90
6106;DHT22;3083;51.508;7.966;2023-10-09T15:06:44;18.70;99.90
6106;DHT22;3083;51.508;7.966;2023-10-09T15:09:13;18.70;99.90
6106;DHT22;3083;51.508;7.966;2023-10-09T15:11:47;18.60;99.90
6106;DHT22;3083;51.508;7.966;2023-10-09T15:14:15;18.50;99.90
6106;DHT22;3083;51.508;7.966;2023-10-09T15:16:44;18.50;99.90
6106;DHT22;3083;51.508;7.966;2023-10-09T15:19:12;18.50;99.90
6106;DHT22;3083;51.508;7.966;2023-10-09T15:21:39;18.50;99.90
6106;DHT22;3083;51.508;7.966;2023-10-09T15:24:11;18.40;99.90
6106;DHT22;3083;51.508;7.966;2023-10-09T15:26:41;18.40;99.90
6106;DHT22;3083;51.508;7.966;2023-10-09T15:29:08;18.40;99.90
6106;DHT22;3083;51.508;7.966;2023-10-09T15:31:35;18.40;99.90
6106;DHT22;3083;51.508;7.966;2023-10-09T15:34:03;18.40;99.90
6106;DHT22;3083;51.508;7.966;2023-10-09T15:36:35;18.40;99.90
6106;DHT22;3083;51.508;7.966;2023-10-09T15:39:02;18.40;99.90
6106;DHT22;3083;51.508;7.966;2023-10-09T15:41:34;18.30;99.90
6106;DHT22;3083;51.508;7.966;2023-10-09T15:44:01;18.30;99.90
6106;DHT22;3083;51.508;7.966;2023-10-09T15:46:28;18.30;99.90
6106;DHT22;3083;51.508;7.966;2023-10-09T15:48:59;18.30;99.90
6106;DHT22;3083;51.508;7.966;2023-10-09T15:51:26;18.30;99.90
6106;DHT22;3083;51.508;7.966;2023-10-09T15:53:53;18.30;99.90
6106;DHT22;3083;51.508;7.966;2023-10-09T15:56:22;18.30;99.90
6106;DHT22;3083;51.508;7.966;2023-10-09T15:58:50;18.20;99.90
6106;DHT22;3083;51.508;7.966;2023-10-09T16:01:20;18.20;99.90
6106;DHT22;3083;51.508;7.966;2023-10-09T16:03:48;18.20;99.90
6106;DHT22;3083;51.508;7.966;2023-10-09T16:06:15;18.20;99.90
6106;DHT22;3083;51.508;7.966;2023-10-09T16:08:43;18.20;99.90
6106;DHT22;3083;51.508;7.966;2023-10-09T16:11:15;18.20;99.90
6106;DHT22;3083;51.508;7.966;2023-10-09T16:13:42;18.20;99.90
6106;DHT22;3083;51.508;7.966;2023-10-09T16:16:10;18.10;99.90
6106;DHT22;3083;51.508;7.966;2023-10-09T16:18:39;18.10;99.90
6106;DHT22;3083;51.508;7.966;2023-10-09T16:21:06;18.10;99.90
6106;DHT22;3083;51.508;7.966;2023-10-09T16:23:38;18.10;99.90
6106;DHT22;3083;51.508;7.966;2023-10-09T16:26:04;18.10;99.90
6106;DHT22;3083;51.508;7.966;2023-10-09T16:28:33;18.10;99.90
6106;DHT22;3083;51.508;7.966;2023-10-09T16:31:00;18.10;99.90
6106;DHT22;3083;51.508;7.966;2023-10-09T16:33:28;18.00;99.90
6106;DHT22;3083;51.508;7.966;2023-10-09T16:35:55;18.00;99.90
6106;DHT22;3083;51.508;7.966;2023-10-09T16:38:25;18.00;99.90
6106;DHT22;3083;51.508;7.966;2023-10-09T16:40:52;18.00;99.90
6106;DHT22;3083;51.508;7.966;2023-10-09T16:43:20;18.00;99.90